Terminal Aerodrome Forecast
Issued by NWS

Home | Current Version | Previous Version | Text Only | Print | Product List | Glossary On
Versions: 1 2 3 4 5 6 7 8 9 10 11 12 13 14
152
FTPA31 PHFO 241742
TAFHNY
TAF
PHNY 241742Z 2418/2518 VRB04KT P6SM FEW020 SCT040
     FM242100 22008KT P6SM FEW020 BKN030
     FM250500 05010KT P6SM FEW020 SCT040
      AMD NOT SKED=

USA.gov is the U.S. government's official web portal to all federal, state and local government web resources and services.